RUK7QL EGPH-EGAA
Flight info
| Callsign | RUK7QL |
|---|---|
| Flight time | 0h 33m |
| Altitude | 24000 |
| Route | GOSAM P600 BLACA DCT BELZU |
| Aircraft | B738/M-SDE2E3FGHIRWXY/LB1 |
Departure
| Time | 2026-04-21 23:47 |
|---|---|
| Airport | Edinburgh Airport (EGPH) |
Arrival
| Time | 2026-04-22 00:20 |
|---|---|
| Airport | Belfast International Airport (EGAA) |
| Time | Latitude | Longitude | Altitude | Speed | Heading |
|---|---|---|---|---|---|
| 2026-04-21 23:37 | 55.94878 | -3.36542 | 144 ft | 0 kts | 149° |
| 2026-04-21 23:40 | 55.94882 | -3.36546 | 144 ft | 2 kts | 149° |
| 2026-04-21 23:41 | 55.94895 | -3.36559 | 144 ft | 3 kts | 149° |
| 2026-04-21 23:41 | 55.94912 | -3.36573 | 144 ft | 3 kts | 170° |
| 2026-04-21 23:41 | 55.94932 | -3.36570 | 144 ft | 3 kts | 205° |
| 2026-04-21 23:41 | 55.94948 | -3.36553 | 144 ft | 3 kts | 213° |
| 2026-04-21 23:42 | 55.94963 | -3.36533 | 144 ft | 3 kts | 224° |
| 2026-04-21 23:42 | 55.94972 | -3.36512 | 144 ft | 0 kts | 239° |
| 2026-04-21 23:42 | 55.94971 | -3.36516 | 144 ft | 2 kts | 239° |
| 2026-04-21 23:43 | 55.94960 | -3.36550 | 144 ft | 5 kts | 239° |
| 2026-04-21 23:43 | 55.94936 | -3.36622 | 144 ft | 8 kts | 239° |
| 2026-04-21 23:43 | 55.94901 | -3.36732 | 144 ft | 12 kts | 244° |
| 2026-04-21 23:43 | 55.94930 | -3.36853 | 144 ft | 9 kts | 275° |
| 2026-04-21 23:44 | 55.94902 | -3.36976 | 144 ft | 13 kts | 239° |
| 2026-04-21 23:44 | 55.94850 | -3.37129 | 144 ft | 16 kts | 239° |
| 2026-04-21 23:44 | 55.94787 | -3.37316 | 144 ft | 19 kts | 239° |
| 2026-04-21 23:44 | 55.94711 | -3.37541 | 144 ft | 23 kts | 239° |
| 2026-04-21 23:45 | 55.94638 | -3.37760 | 144 ft | 15 kts | 239° |
| 2026-04-21 23:45 | 55.94660 | -3.38017 | 144 ft | 14 kts | 328° |
| 2026-04-21 23:45 | 55.94712 | -3.38063 | 144 ft | 7 kts | 2° |
| 2026-04-21 23:46 | 55.94738 | -3.38028 | 144 ft | 9 kts | 52° |
| 2026-04-21 23:46 | 55.94924 | -3.37479 | 144 ft | 82 kts | 59° |
| 2026-04-21 23:46 | 55.95174 | -3.36737 | 144 ft | 124 kts | 59° |
| 2026-04-21 23:46 | 55.95673 | -3.35264 | 545 ft | 145 kts | 59° |
| 2026-04-21 23:47 | 55.96210 | -3.33664 | 1253 ft | 156 kts | 57° |
| 2026-04-21 23:47 | 55.97010 | -3.32250 | 1947 ft | 168 kts | 43° |
| 2026-04-21 23:47 | 55.97970 | -3.30918 | 2601 ft | 183 kts | 40° |
| 2026-04-21 23:47 | 55.99042 | -3.29569 | 3338 ft | 195 kts | 34° |
| 2026-04-21 23:48 | 56.00878 | -3.29162 | 4289 ft | 215 kts | 353° |
| 2026-04-21 23:48 | 56.01800 | -3.29876 | 4775 ft | 220 kts | 333° |
| 2026-04-21 23:48 | 56.02817 | -3.31920 | 5488 ft | 223 kts | 301° |
| 2026-04-21 23:48 | 56.03135 | -3.34608 | 6201 ft | 222 kts | 270° |
| 2026-04-21 23:49 | 56.02935 | -3.37325 | 6906 ft | 224 kts | 258° |
| 2026-04-21 23:49 | 56.02579 | -3.40122 | 7562 ft | 234 kts | 255° |
| 2026-04-21 23:49 | 56.02166 | -3.43030 | 8214 ft | 248 kts | 254° |
| 2026-04-21 23:49 | 56.01723 | -3.46072 | 8856 ft | 263 kts | 254° |
| 2026-04-21 23:50 | 56.01245 | -3.49323 | 9498 ft | 278 kts | 254° |
| 2026-04-21 23:50 | 56.00734 | -3.52792 | 10159 ft | 295 kts | 254° |
| 2026-04-21 23:50 | 56.00207 | -3.56383 | 11018 ft | 307 kts | 254° |
| 2026-04-21 23:50 | 55.99654 | -3.60157 | 11881 ft | 318 kts | 254° |
| 2026-04-21 23:51 | 55.99085 | -3.64069 | 12745 ft | 328 kts | 254° |
| 2026-04-21 23:51 | 55.98501 | -3.68033 | 13602 ft | 336 kts | 252° |
| 2026-04-21 23:51 | 55.97511 | -3.71795 | 14453 ft | 339 kts | 233° |
| 2026-04-21 23:51 | 55.95961 | -3.74993 | 15342 ft | 341 kts | 222° |
| 2026-04-21 23:52 | 55.94194 | -3.77844 | 16211 ft | 344 kts | 217° |
| 2026-04-21 23:52 | 55.92314 | -3.80579 | 16908 ft | 353 kts | 216° |
| 2026-04-21 23:52 | 55.90354 | -3.83290 | 17520 ft | 363 kts | 214° |
| 2026-04-21 23:52 | 55.88328 | -3.86025 | 18123 ft | 372 kts | 214° |
| 2026-04-21 23:53 | 55.86227 | -3.88826 | 18730 ft | 380 kts | 214° |
| 2026-04-21 23:53 | 55.84075 | -3.91671 | 19338 ft | 387 kts | 214° |
| 2026-04-21 23:53 | 55.81894 | -3.94540 | 19942 ft | 393 kts | 214° |
| 2026-04-21 23:53 | 55.79714 | -3.97431 | 20539 ft | 397 kts | 214° |
| 2026-04-21 23:54 | 55.77491 | -4.00404 | 21143 ft | 401 kts | 215° |
| 2026-04-21 23:54 | 55.75245 | -4.03413 | 21749 ft | 403 kts | 215° |
| 2026-04-21 23:54 | 55.73073 | -4.06317 | 22330 ft | 405 kts | 215° |
| 2026-04-21 23:54 | 55.70806 | -4.09343 | 22934 ft | 406 kts | 215° |
| 2026-04-21 23:55 | 55.68550 | -4.12343 | 23407 ft | 411 kts | 215° |
| 2026-04-21 23:55 | 55.66231 | -4.15412 | 23701 ft | 419 kts | 215° |
| 2026-04-21 23:55 | 55.63863 | -4.18528 | 23962 ft | 426 kts | 215° |
| 2026-04-21 23:55 | 55.61459 | -4.21676 | 24216 ft | 432 kts | 215° |
| 2026-04-21 23:56 | 55.59021 | -4.24852 | 24410 ft | 437 kts | 215° |
| 2026-04-21 23:56 | 55.56553 | -4.28047 | 24523 ft | 440 kts | 215° |
| 2026-04-21 23:56 | 55.54104 | -4.31216 | 24571 ft | 442 kts | 215° |
| 2026-04-21 23:56 | 55.51609 | -4.34471 | 24568 ft | 443 kts | 216° |
| 2026-04-21 23:57 | 55.49145 | -4.37694 | 24575 ft | 444 kts | 216° |
| 2026-04-21 23:57 | 55.46651 | -4.40956 | 24580 ft | 444 kts | 216° |
| 2026-04-21 23:57 | 55.44166 | -4.44198 | 24582 ft | 444 kts | 216° |
| 2026-04-21 23:57 | 55.41703 | -4.47402 | 24583 ft | 444 kts | 216° |
| 2026-04-21 23:58 | 55.39193 | -4.50654 | 24583 ft | 444 kts | 216° |
| 2026-04-21 23:58 | 55.36733 | -4.53828 | 24583 ft | 444 kts | 216° |
| 2026-04-21 23:58 | 55.34225 | -4.57049 | 24583 ft | 444 kts | 216° |
| 2026-04-21 23:58 | 55.31718 | -4.60255 | 24577 ft | 444 kts | 216° |
| 2026-04-21 23:59 | 55.29249 | -4.63400 | 24574 ft | 444 kts | 216° |
| 2026-04-21 23:59 | 55.26732 | -4.66597 | 24568 ft | 444 kts | 216° |
| 2026-04-21 23:59 | 55.24229 | -4.69807 | 24564 ft | 444 kts | 216° |
| 2026-04-21 23:59 | 55.21770 | -4.72982 | 24559 ft | 444 kts | 217° |
| 2026-04-22 00:00 | 55.19274 | -4.76207 | 24555 ft | 444 kts | 217° |
| 2026-04-22 00:00 | 55.16774 | -4.79431 | 24550 ft | 444 kts | 217° |
| 2026-04-22 00:00 | 55.14316 | -4.82598 | 24545 ft | 444 kts | 217° |
| 2026-04-22 00:00 | 55.12038 | -4.86259 | 24549 ft | 443 kts | 229° |
| 2026-04-22 00:01 | 55.10200 | -4.90576 | 24557 ft | 443 kts | 237° |
| 2026-04-22 00:01 | 55.08650 | -4.95159 | 24548 ft | 442 kts | 243° |
| 2026-04-22 00:01 | 55.07316 | -5.00003 | 24538 ft | 441 kts | 246° |
| 2026-04-22 00:01 | 55.06114 | -5.04943 | 24530 ft | 441 kts | 248° |
| 2026-04-22 00:02 | 55.04982 | -5.09924 | 24525 ft | 440 kts | 249° |
| 2026-04-22 00:02 | 55.03897 | -5.14872 | 24520 ft | 438 kts | 250° |
| 2026-04-22 00:02 | 55.02859 | -5.19678 | 24508 ft | 406 kts | 250° |
| 2026-04-22 00:02 | 55.01902 | -5.24128 | 24202 ft | 379 kts | 250° |
| 2026-04-22 00:03 | 55.01011 | -5.28281 | 23751 ft | 361 kts | 250° |
| 2026-04-22 00:03 | 55.00126 | -5.32285 | 23275 ft | 346 kts | 248° |
| 2026-04-22 00:03 | 54.99185 | -5.36090 | 22797 ft | 335 kts | 246° |
| 2026-04-22 00:03 | 54.98246 | -5.39698 | 22323 ft | 326 kts | 246° |
| 2026-04-22 00:04 | 54.97299 | -5.43273 | 21840 ft | 320 kts | 245° |
| 2026-04-22 00:04 | 54.96379 | -5.46732 | 21348 ft | 316 kts | 245° |
| 2026-04-22 00:04 | 54.95458 | -5.50202 | 20846 ft | 313 kts | 245° |
| 2026-04-22 00:04 | 54.94545 | -5.53644 | 20342 ft | 311 kts | 245° |
| 2026-04-22 00:05 | 54.93653 | -5.57007 | 19848 ft | 309 kts | 245° |
| 2026-04-22 00:05 | 54.92753 | -5.60431 | 19342 ft | 308 kts | 245° |
| 2026-04-22 00:05 | 54.91888 | -5.63777 | 18847 ft | 306 kts | 245° |
| 2026-04-22 00:05 | 54.91027 | -5.67159 | 18345 ft | 304 kts | 245° |
| 2026-04-22 00:06 | 54.90180 | -5.70530 | 17844 ft | 303 kts | 245° |
| 2026-04-22 00:06 | 54.89345 | -5.73895 | 17342 ft | 302 kts | 245° |
| 2026-04-22 00:06 | 54.88528 | -5.77212 | 16845 ft | 300 kts | 245° |
| 2026-04-22 00:06 | 54.87711 | -5.80556 | 16343 ft | 299 kts | 245° |
| 2026-04-22 00:07 | 54.86905 | -5.83871 | 15840 ft | 295 kts | 245° |
| 2026-04-22 00:07 | 54.86062 | -5.87053 | 15345 ft | 291 kts | 242° |
| 2026-04-22 00:07 | 54.85163 | -5.90198 | 14841 ft | 288 kts | 240° |
| 2026-04-22 00:07 | 54.84271 | -5.93258 | 14344 ft | 285 kts | 240° |
| 2026-04-22 00:08 | 54.83374 | -5.96323 | 13842 ft | 283 kts | 240° |
| 2026-04-22 00:08 | 54.82482 | -5.99378 | 13341 ft | 282 kts | 240° |
| 2026-04-22 00:08 | 54.81613 | -6.02377 | 12843 ft | 280 kts | 240° |
| 2026-04-22 00:08 | 54.80746 | -6.05394 | 12342 ft | 279 kts | 240° |
| 2026-04-22 00:09 | 54.79887 | -6.08407 | 11842 ft | 278 kts | 240° |
| 2026-04-22 00:09 | 54.79034 | -6.11422 | 11339 ft | 277 kts | 240° |
| 2026-04-22 00:09 | 54.78192 | -6.14396 | 10842 ft | 276 kts | 240° |
| 2026-04-22 00:09 | 54.77347 | -6.17387 | 10341 ft | 275 kts | 240° |
| 2026-04-22 00:10 | 54.76505 | -6.20375 | 9840 ft | 275 kts | 240° |
| 2026-04-22 00:10 | 54.75676 | -6.23327 | 9342 ft | 274 kts | 240° |
| 2026-04-22 00:10 | 54.74841 | -6.26307 | 8838 ft | 274 kts | 240° |
| 2026-04-22 00:10 | 54.74012 | -6.29274 | 8335 ft | 273 kts | 240° |
| 2026-04-22 00:11 | 54.73188 | -6.32226 | 7837 ft | 272 kts | 240° |
| 2026-04-22 00:11 | 54.72374 | -6.35137 | 7345 ft | 271 kts | 240° |
| 2026-04-22 00:11 | 54.71552 | -6.38082 | 6843 ft | 271 kts | 240° |
| 2026-04-22 00:11 | 54.70739 | -6.41004 | 6486 ft | 264 kts | 240° |
| 2026-04-22 00:12 | 54.69958 | -6.43832 | 6232 ft | 255 kts | 240° |
| 2026-04-22 00:12 | 54.69217 | -6.46529 | 5978 ft | 247 kts | 240° |
| 2026-04-22 00:12 | 54.68488 | -6.49191 | 5721 ft | 241 kts | 240° |
| 2026-04-22 00:12 | 54.67786 | -6.51761 | 5468 ft | 236 kts | 240° |
| 2026-04-22 00:13 | 54.67087 | -6.54318 | 5212 ft | 233 kts | 240° |
| 2026-04-22 00:13 | 54.66295 | -6.56728 | 4940 ft | 227 kts | 224° |
| 2026-04-22 00:13 | 54.65073 | -6.58178 | 4757 ft | 205 kts | 192° |
| 2026-04-22 00:13 | 54.63741 | -6.58291 | 4616 ft | 185 kts | 162° |
| 2026-04-22 00:14 | 54.62528 | -6.57640 | 4473 ft | 180 kts | 152° |
| 2026-04-22 00:14 | 54.61378 | -6.56856 | 4302 ft | 178 kts | 150° |
| 2026-04-22 00:14 | 54.60232 | -6.56041 | 4099 ft | 176 kts | 148° |
| 2026-04-22 00:14 | 54.59341 | -6.54761 | 3864 ft | 163 kts | 118° |
| 2026-04-22 00:15 | 54.58998 | -6.52933 | 3703 ft | 160 kts | 100° |
| 2026-04-22 00:15 | 54.58852 | -6.51048 | 3519 ft | 160 kts | 95° |
| 2026-04-22 00:15 | 54.58843 | -6.49116 | 3317 ft | 159 kts | 87° |
| 2026-04-22 00:15 | 54.59031 | -6.47264 | 3120 ft | 158 kts | 78° |
| 2026-04-22 00:16 | 54.59367 | -6.45458 | 2919 ft | 157 kts | 73° |
| 2026-04-22 00:16 | 54.59781 | -6.43721 | 2735 ft | 154 kts | 70° |
| 2026-04-22 00:16 | 54.60215 | -6.42079 | 2549 ft | 146 kts | 69° |
| 2026-04-22 00:16 | 54.60633 | -6.40538 | 2363 ft | 141 kts | 69° |
| 2026-04-22 00:17 | 54.61046 | -6.39017 | 2183 ft | 138 kts | 69° |
| 2026-04-22 00:17 | 54.61440 | -6.37564 | 2023 ft | 129 kts | 69° |
| 2026-04-22 00:17 | 54.61810 | -6.36198 | 1890 ft | 125 kts | 69° |
| 2026-04-22 00:17 | 54.62169 | -6.34870 | 1743 ft | 120 kts | 69° |
| 2026-04-22 00:18 | 54.62521 | -6.33562 | 1586 ft | 119 kts | 69° |
| 2026-04-22 00:18 | 54.62871 | -6.32259 | 1417 ft | 121 kts | 68° |
| 2026-04-22 00:18 | 54.63225 | -6.30942 | 1262 ft | 122 kts | 67° |
| 2026-04-22 00:18 | 54.63587 | -6.29602 | 1121 ft | 124 kts | 67° |
| 2026-04-22 00:19 | 54.63954 | -6.28243 | 959 ft | 126 kts | 67° |
| 2026-04-22 00:19 | 54.64325 | -6.26865 | 787 ft | 127 kts | 66° |
| 2026-04-22 00:19 | 54.64694 | -6.25493 | 591 ft | 127 kts | 65° |
| 2026-04-22 00:19 | 54.65066 | -6.24110 | 390 ft | 127 kts | 65° |
| 2026-04-22 00:20 | 54.65418 | -6.22804 | 277 ft | 100 kts | 65° |
| 2026-04-22 00:20 | 54.65608 | -6.22097 | 277 ft | 44 kts | 65° |
| 2026-04-22 00:20 | 54.65713 | -6.21709 | 277 ft | 29 kts | 65° |
| 2026-04-22 00:20 | 54.65781 | -6.21455 | 277 ft | 20 kts | 65° |
| 2026-04-22 00:21 | 54.65862 | -6.21299 | 277 ft | 14 kts | 355° |
| 2026-04-22 00:21 | 54.65929 | -6.21345 | 277 ft | 8 kts | 335° |
| 2026-04-22 00:21 | 54.65972 | -6.21413 | 277 ft | 8 kts | 277° |
| 2026-04-22 00:21 | 54.65954 | -6.21509 | 277 ft | 9 kts | 264° |
| 2026-04-22 00:22 | 54.65990 | -6.21593 | 277 ft | 10 kts | 336° |
| 2026-04-22 00:22 | 54.66025 | -6.21668 | 277 ft | 6 kts | 246° |
| 2026-04-22 00:22 | 54.66011 | -6.21717 | 277 ft | 5 kts | 246° |
| 2026-04-22 00:22 | 54.66006 | -6.21740 | 277 ft | 0 kts | 246° |